sensor_id;sensor_type;location;lat;lon;timestamp;P1;durP1;ratioP1;P2;durP2;ratioP2
9140;SDS011;46330;50.822;7.126;2024-03-06T00:01:45;30.65;;;16.90;;
9140;SDS011;46330;50.822;7.126;2024-03-06T00:04:15;32.72;;;17.58;;
9140;SDS011;46330;50.822;7.126;2024-03-06T00:06:45;32.58;;;17.38;;
9140;SDS011;46330;50.822;7.126;2024-03-06T00:09:13;34.00;;;18.17;;
9140;SDS011;46330;50.822;7.126;2024-03-06T00:11:41;37.15;;;17.85;;
9140;SDS011;46330;50.822;7.126;2024-03-06T00:14:09;33.13;;;16.90;;
9140;SDS011;46330;50.822;7.126;2024-03-06T00:16:40;34.00;;;18.13;;
9140;SDS011;46330;50.822;7.126;2024-03-06T00:19:10;29.08;;;17.08;;
9140;SDS011;46330;50.822;7.126;2024-03-06T00:21:38;32.17;;;17.88;;
9140;SDS011;46330;50.822;7.126;2024-03-06T00:24:06;32.17;;;17.30;;
9140;SDS011;46330;50.822;7.126;2024-03-06T00:26:34;40.15;;;19.60;;
9140;SDS011;46330;50.822;7.126;2024-03-06T00:29:02;37.30;;;19.70;;
9140;SDS011;46330;50.822;7.126;2024-03-06T00:31:30;32.17;;;17.83;;
9140;SDS011;46330;50.822;7.126;2024-03-06T00:34:00;32.78;;;16.90;;
9140;SDS011;46330;50.822;7.126;2024-03-06T00:36:28;36.00;;;18.88;;
9140;SDS011;46330;50.822;7.126;2024-03-06T00:38:56;32.83;;;17.98;;
9140;SDS011;46330;50.822;7.126;2024-03-06T00:41:24;33.78;;;18.00;;
9140;SDS011;46330;50.822;7.126;2024-03-06T00:43:51;33.95;;;18.50;;
9140;SDS011;46330;50.822;7.126;2024-03-06T00:46:19;33.35;;;18.05;;
9140;SDS011;46330;50.822;7.126;2024-03-06T00:48:47;31.70;;;17.13;;
9140;SDS011;46330;50.822;7.126;2024-03-06T00:51:16;30.30;;;17.25;;
9140;SDS011;46330;50.822;7.126;2024-03-06T00:53:49;32.10;;;16.77;;
9140;SDS011;46330;50.822;7.126;2024-03-06T00:56:17;30.95;;;16.40;;
9140;SDS011;46330;50.822;7.126;2024-03-06T00:58:45;33.70;;;16.17;;
9140;SDS011;46330;50.822;7.126;2024-03-06T01:01:14;36.38;;;18.38;;
9140;SDS011;46330;50.822;7.126;2024-03-06T01:03:43;30.50;;;16.95;;
9140;SDS011;46330;50.822;7.126;2024-03-06T01:06:11;28.35;;;16.75;;
9140;SDS011;46330;50.822;7.126;2024-03-06T01:08:40;27.10;;;15.75;;
9140;SDS011;46330;50.822;7.126;2024-03-06T01:11:08;29.95;;;16.38;;
9140;SDS011;46330;50.822;7.126;2024-03-06T01:13:40;30.48;;;16.58;;
9140;SDS011;46330;50.822;7.126;2024-03-06T01:16:08;32.83;;;17.30;;
9140;SDS011;46330;50.822;7.126;2024-03-06T01:18:36;31.77;;;17.15;;
9140;SDS011;46330;50.822;7.126;2024-03-06T01:21:04;30.17;;;15.82;;
9140;SDS011;46330;50.822;7.126;2024-03-06T01:23:32;28.23;;;16.08;;
9140;SDS011;46330;50.822;7.126;2024-03-06T01:26:01;29.10;;;16.08;;
9140;SDS011;46330;50.822;7.126;2024-03-06T01:28:29;32.17;;;16.38;;
9140;SDS011;46330;50.822;7.126;2024-03-06T01:30:57;27.92;;;15.45;;
9140;SDS011;46330;50.822;7.126;2024-03-06T01:33:25;33.63;;;17.38;;
9140;SDS011;46330;50.822;7.126;2024-03-06T01:35:53;29.65;;;16.10;;
9140;SDS011;46330;50.822;7.126;2024-03-06T01:38:21;29.83;;;16.23;;
9140;SDS011;46330;50.822;7.126;2024-03-06T01:40:49;32.60;;;15.98;;
9140;SDS011;46330;50.822;7.126;2024-03-06T01:43:22;28.88;;;15.55;;
9140;SDS011;46330;50.822;7.126;2024-03-06T01:45:52;29.58;;;15.57;;
9140;SDS011;46330;50.822;7.126;2024-03-06T01:48:21;29.70;;;16.08;;
9140;SDS011;46330;50.822;7.126;2024-03-06T01:50:52;35.38;;;16.63;;
9140;SDS011;46330;50.822;7.126;2024-03-06T01:53:21;28.80;;;15.88;;
9140;SDS011;46330;50.822;7.126;2024-03-06T01:55:50;29.05;;;15.93;;
9140;SDS011;46330;50.822;7.126;2024-03-06T01:58:19;34.45;;;17.20;;
9140;SDS011;46330;50.822;7.126;2024-03-06T02:00:50;28.42;;;16.38;;
9140;SDS011;46330;50.822;7.126;2024-03-06T02:03:20;32.67;;;16.70;;
9140;SDS011;46330;50.822;7.126;2024-03-06T02:05:48;33.92;;;17.52;;
9140;SDS011;46330;50.822;7.126;2024-03-06T02:08:18;29.88;;;16.73;;
9140;SDS011;46330;50.822;7.126;2024-03-06T02:10:46;31.35;;;16.48;;
9140;SDS011;46330;50.822;7.126;2024-03-06T02:13:14;31.17;;;16.48;;
9140;SDS011;46330;50.822;7.126;2024-03-06T02:15:44;27.20;;;15.60;;
9140;SDS011;46330;50.822;7.126;2024-03-06T02:18:12;32.78;;;16.38;;
9140;SDS011;46330;50.822;7.126;2024-03-06T02:20:42;28.85;;;15.70;;
9140;SDS011;46330;50.822;7.126;2024-03-06T02:23:09;30.30;;;16.30;;
9140;SDS011;46330;50.822;7.126;2024-03-06T02:25:37;31.27;;;17.00;;
9140;SDS011;46330;50.822;7.126;2024-03-06T02:28:05;29.52;;;16.40;;
9140;SDS011;46330;50.822;7.126;2024-03-06T02:30:33;30.85;;;16.83;;
9140;SDS011;46330;50.822;7.126;2024-03-06T02:33:04;31.95;;;17.30;;
9140;SDS011;46330;50.822;7.126;2024-03-06T02:35:33;31.90;;;16.80;;
9140;SDS011;46330;50.822;7.126;2024-03-06T02:38:03;32.13;;;16.58;;
9140;SDS011;46330;50.822;7.126;2024-03-06T02:40:32;28.23;;;15.60;;
9140;SDS011;46330;50.822;7.126;2024-03-06T02:43:00;31.02;;;15.82;;
9140;SDS011;46330;50.822;7.126;2024-03-06T02:45:29;29.92;;;16.35;;
9140;SDS011;46330;50.822;7.126;2024-03-06T02:47:57;30.10;;;15.48;;
9140;SDS011;46330;50.822;7.126;2024-03-06T02:50:25;32.28;;;16.38;;
9140;SDS011;46330;50.822;7.126;2024-03-06T02:52:52;30.88;;;15.95;;
9140;SDS011;46330;50.822;7.126;2024-03-06T02:55:22;27.63;;;14.63;;
9140;SDS011;46330;50.822;7.126;2024-03-06T02:57:51;26.42;;;13.90;;
9140;SDS011;46330;50.822;7.126;2024-03-06T03:00:19;25.23;;;14.95;;
9140;SDS011;46330;50.822;7.126;2024-03-06T03:02:48;23.70;;;13.50;;
9140;SDS011;46330;50.822;7.126;2024-03-06T03:05:16;24.48;;;14.55;;
9140;SDS011;46330;50.822;7.126;2024-03-06T03:07:44;24.50;;;13.43;;
9140;SDS011;46330;50.822;7.126;2024-03-06T03:10:12;28.77;;;14.10;;
9140;SDS011;46330;50.822;7.126;2024-03-06T03:12:41;23.60;;;13.75;;
9140;SDS011;46330;50.822;7.126;2024-03-06T03:15:09;24.15;;;13.15;;
9140;SDS011;46330;50.822;7.126;2024-03-06T03:17:37;26.52;;;13.82;;
9140;SDS011;46330;50.822;7.126;2024-03-06T03:20:06;25.05;;;14.43;;
9140;SDS011;46330;50.822;7.126;2024-03-06T03:22:37;26.88;;;14.15;;
9140;SDS011;46330;50.822;7.126;2024-03-06T03:25:07;30.65;;;15.18;;
9140;SDS011;46330;50.822;7.126;2024-03-06T03:27:36;26.98;;;15.20;;
9140;SDS011;46330;50.822;7.126;2024-03-06T03:30:06;26.00;;;14.27;;
9140;SDS011;46330;50.822;7.126;2024-03-06T03:32:36;28.63;;;15.68;;
9140;SDS011;46330;50.822;7.126;2024-03-06T03:35:05;26.40;;;14.98;;
9140;SDS011;46330;50.822;7.126;2024-03-06T03:37:33;24.35;;;14.73;;
9140;SDS011;46330;50.822;7.126;2024-03-06T03:40:01;27.02;;;13.93;;
9140;SDS011;46330;50.822;7.126;2024-03-06T03:42:30;26.58;;;14.60;;
9140;SDS011;46330;50.822;7.126;2024-03-06T03:44:58;30.55;;;15.75;;
9140;SDS011;46330;50.822;7.126;2024-03-06T03:47:27;32.88;;;15.77;;
9140;SDS011;46330;50.822;7.126;2024-03-06T03:49:55;29.85;;;15.02;;
9140;SDS011;46330;50.822;7.126;2024-03-06T03:52:35;27.63;;;15.25;;
9140;SDS011;46330;50.822;7.126;2024-03-06T03:55:08;27.48;;;15.50;;
9140;SDS011;46330;50.822;7.126;2024-03-06T03:57:36;29.17;;;14.75;;
9140;SDS011;46330;50.822;7.126;2024-03-06T04:00:04;26.60;;;14.52;;
9140;SDS011;46330;50.822;7.126;2024-03-06T04:02:39;26.10;;;14.10;;
9140;SDS011;46330;50.822;7.126;2024-03-06T04:05:08;29.10;;;14.73;;
9140;SDS011;46330;50.822;7.126;2024-03-06T04:07:37;34.40;;;16.05;;
9140;SDS011;46330;50.822;7.126;2024-03-06T04:10:06;26.15;;;14.82;;
9140;SDS011;46330;50.822;7.126;2024-03-06T04:12:37;26.30;;;13.93;;
9140;SDS011;46330;50.822;7.126;2024-03-06T04:15:06;29.02;;;14.15;;
9140;SDS011;46330;50.822;7.126;2024-03-06T04:17:35;29.10;;;15.70;;
9140;SDS011;46330;50.822;7.126;2024-03-06T04:20:05;31.27;;;15.68;;
9140;SDS011;46330;50.822;7.126;2024-03-06T04:22:34;32.35;;;17.33;;
9140;SDS011;46330;50.822;7.126;2024-03-06T04:25:02;32.47;;;16.67;;
9140;SDS011;46330;50.822;7.126;2024-03-06T04:27:31;31.63;;;15.57;;
9140;SDS011;46330;50.822;7.126;2024-03-06T04:29:59;28.70;;;16.08;;
9140;SDS011;46330;50.822;7.126;2024-03-06T04:32:27;33.38;;;16.65;;
9140;SDS011;46330;50.822;7.126;2024-03-06T04:34:55;39.30;;;15.07;;
9140;SDS011;46330;50.822;7.126;2024-03-06T04:37:24;43.80;;;14.73;;
9140;SDS011;46330;50.822;7.126;2024-03-06T04:39:53;32.83;;;14.77;;
9140;SDS011;46330;50.822;7.126;2024-03-06T04:42:20;29.75;;;13.88;;
9140;SDS011;46330;50.822;7.126;2024-03-06T04:44:48;33.97;;;13.70;;
9140;SDS011;46330;50.822;7.126;2024-03-06T04:47:16;28.02;;;13.98;;
9140;SDS011;46330;50.822;7.126;2024-03-06T04:49:45;24.65;;;13.65;;
9140;SDS011;46330;50.822;7.126;2024-03-06T04:52:13;27.05;;;13.60;;
9140;SDS011;46330;50.822;7.126;2024-03-06T04:54:42;28.83;;;13.52;;
9140;SDS011;46330;50.822;7.126;2024-03-06T04:57:15;25.48;;;13.85;;
9140;SDS011;46330;50.822;7.126;2024-03-06T04:59:43;25.70;;;13.68;;
9140;SDS011;46330;50.822;7.126;2024-03-06T05:02:11;22.48;;;12.65;;
9140;SDS011;46330;50.822;7.126;2024-03-06T05:04:39;27.25;;;13.55;;
9140;SDS011;46330;50.822;7.126;2024-03-06T05:07:24;22.92;;;13.45;;
9140;SDS011;46330;50.822;7.126;2024-03-06T05:12:56;27.42;;;13.30;;
9140;SDS011;46330;50.822;7.126;2024-03-06T05:15:42;25.75;;;13.13;;
9140;SDS011;46330;50.822;7.126;2024-03-06T05:21:12;23.77;;;12.25;;
9140;SDS011;46330;50.822;7.126;2024-03-06T05:23:58;22.35;;;12.43;;
9140;SDS011;46330;50.822;7.126;2024-03-06T05:26:45;26.85;;;12.68;;
9140;SDS011;46330;50.822;7.126;2024-03-06T05:29:30;22.25;;;12.63;;
9140;SDS011;46330;50.822;7.126;2024-03-06T05:32:15;25.80;;;13.60;;
9140;SDS011;46330;50.822;7.126;2024-03-06T05:35:01;25.48;;;13.43;;
9140;SDS011;46330;50.822;7.126;2024-03-06T05:37:46;23.55;;;12.40;;
9140;SDS011;46330;50.822;7.126;2024-03-06T05:43:22;17.83;;;11.30;;
9140;SDS011;46330;50.822;7.126;2024-03-06T05:46:07;19.60;;;11.60;;
9140;SDS011;46330;50.822;7.126;2024-03-06T05:51:38;18.40;;;10.82;;
9140;SDS011;46330;50.822;7.126;2024-03-06T05:54:23;23.02;;;12.07;;
9140;SDS011;46330;50.822;7.126;2024-03-06T05:57:14;22.38;;;12.02;;
9140;SDS011;46330;50.822;7.126;2024-03-06T06:00:01;24.30;;;11.60;;
9140;SDS011;46330;50.822;7.126;2024-03-06T06:02:36;23.88;;;11.70;;
9140;SDS011;46330;50.822;7.126;2024-03-06T06:05:05;30.00;;;11.50;;
9140;SDS011;46330;50.822;7.126;2024-03-06T06:07:49;22.23;;;10.73;;
9140;SDS011;46330;50.822;7.126;2024-03-06T06:10:17;32.97;;;10.77;;
9140;SDS011;46330;50.822;7.126;2024-03-06T06:12:48;30.17;;;11.07;;
9140;SDS011;46330;50.822;7.126;2024-03-06T06:15:17;23.58;;;11.07;;
9140;SDS011;46330;50.822;7.126;2024-03-06T06:17:45;30.10;;;10.90;;
9140;SDS011;46330;50.822;7.126;2024-03-06T06:20:13;29.42;;;9.90;;
9140;SDS011;46330;50.822;7.126;2024-03-06T06:22:43;23.83;;;10.50;;
9140;SDS011;46330;50.822;7.126;2024-03-06T06:25:11;21.85;;;10.07;;
9140;SDS011;46330;50.822;7.126;2024-03-06T06:27:39;20.08;;;11.32;;
9140;SDS011;46330;50.822;7.126;2024-03-06T06:30:07;17.48;;;10.27;;
9140;SDS011;46330;50.822;7.126;2024-03-06T06:32:40;19.65;;;10.20;;
9140;SDS011;46330;50.822;7.126;2024-03-06T06:35:09;18.17;;;10.45;;
9140;SDS011;46330;50.822;7.126;2024-03-06T06:37:38;19.63;;;10.25;;
9140;SDS011;46330;50.822;7.126;2024-03-06T06:40:06;16.45;;;9.73;;
9140;SDS011;46330;50.822;7.126;2024-03-06T06:42:36;15.23;;;8.57;;
9140;SDS011;46330;50.822;7.126;2024-03-06T06:45:05;15.10;;;8.90;;
9140;SDS011;46330;50.822;7.126;2024-03-06T06:47:36;15.48;;;8.60;;
9140;SDS011;46330;50.822;7.126;2024-03-06T06:50:07;17.42;;;8.65;;
9140;SDS011;46330;50.822;7.126;2024-03-06T06:52:36;16.80;;;8.93;;
9140;SDS011;46330;50.822;7.126;2024-03-06T06:55:04;17.55;;;8.85;;
9140;SDS011;46330;50.822;7.126;2024-03-06T06:57:32;17.00;;;8.77;;
9140;SDS011;46330;50.822;7.126;2024-03-06T07:00:00;17.95;;;9.15;;
9140;SDS011;46330;50.822;7.126;2024-03-06T07:02:29;20.05;;;8.30;;
9140;SDS011;46330;50.822;7.126;2024-03-06T07:04:57;18.70;;;9.23;;
9140;SDS011;46330;50.822;7.126;2024-03-06T07:07:27;19.77;;;9.38;;
9140;SDS011;46330;50.822;7.126;2024-03-06T07:09:55;14.25;;;8.63;;
9140;SDS011;46330;50.822;7.126;2024-03-06T07:12:23;18.67;;;8.93;;
9140;SDS011;46330;50.822;7.126;2024-03-06T07:14:51;15.10;;;8.10;;
9140;SDS011;46330;50.822;7.126;2024-03-06T07:17:19;16.52;;;9.75;;
9140;SDS011;46330;50.822;7.126;2024-03-06T07:19:47;22.42;;;9.98;;
9140;SDS011;46330;50.822;7.126;2024-03-06T07:22:15;22.83;;;9.82;;
9140;SDS011;46330;50.822;7.126;2024-03-06T07:24:45;22.00;;;9.63;;
9140;SDS011;46330;50.822;7.126;2024-03-06T07:27:13;17.50;;;9.60;;
9140;SDS011;46330;50.822;7.126;2024-03-06T07:29:41;19.33;;;10.15;;
9140;SDS011;46330;50.822;7.126;2024-03-06T07:32:08;19.08;;;9.57;;
9140;SDS011;46330;50.822;7.126;2024-03-06T07:34:37;21.00;;;10.63;;
9140;SDS011;46330;50.822;7.126;2024-03-06T07:37:05;15.50;;;9.32;;
9140;SDS011;46330;50.822;7.126;2024-03-06T07:39:32;12.63;;;7.68;;
9140;SDS011;46330;50.822;7.126;2024-03-06T07:42:02;16.60;;;8.25;;
9140;SDS011;46330;50.822;7.126;2024-03-06T07:44:31;12.93;;;7.85;;
9140;SDS011;46330;50.822;7.126;2024-03-06T07:46:58;14.48;;;8.25;;
9140;SDS011;46330;50.822;7.126;2024-03-06T07:49:26;13.48;;;8.00;;
9140;SDS011;46330;50.822;7.126;2024-03-06T07:51:54;15.50;;;8.27;;
9140;SDS011;46330;50.822;7.126;2024-03-06T07:54:23;13.50;;;8.68;;
9140;SDS011;46330;50.822;7.126;2024-03-06T07:56:51;15.98;;;8.32;;
9140;SDS011;46330;50.822;7.126;2024-03-06T07:59:21;17.38;;;8.95;;
9140;SDS011;46330;50.822;7.126;2024-03-06T08:01:49;15.82;;;8.55;;
9140;SDS011;46330;50.822;7.126;2024-03-06T08:04:17;13.60;;;7.88;;
9140;SDS011;46330;50.822;7.126;2024-03-06T08:06:45;12.95;;;8.35;;
9140;SDS011;46330;50.822;7.126;2024-03-06T08:09:13;14.27;;;8.13;;
9140;SDS011;46330;50.822;7.126;2024-03-06T08:11:42;14.60;;;8.45;;
9140;SDS011;46330;50.822;7.126;2024-03-06T08:14:10;16.40;;;8.48;;
9140;SDS011;46330;50.822;7.126;2024-03-06T08:16:42;15.50;;;8.52;;
9140;SDS011;46330;50.822;7.126;2024-03-06T08:19:10;12.15;;;7.55;;
9140;SDS011;46330;50.822;7.126;2024-03-06T08:21:38;14.60;;;8.30;;
9140;SDS011;46330;50.822;7.126;2024-03-06T08:24:06;15.88;;;8.75;;
9140;SDS011;46330;50.822;7.126;2024-03-06T08:26:34;14.13;;;8.13;;
9140;SDS011;46330;50.822;7.126;2024-03-06T08:29:02;15.23;;;9.32;;
9140;SDS011;46330;50.822;7.126;2024-03-06T08:31:30;17.02;;;9.77;;
9140;SDS011;46330;50.822;7.126;2024-03-06T08:34:00;13.65;;;8.60;;
9140;SDS011;46330;50.822;7.126;2024-03-06T08:36:28;12.80;;;8.55;;
9140;SDS011;46330;50.822;7.126;2024-03-06T08:38:56;15.65;;;9.00;;
9140;SDS011;46330;50.822;7.126;2024-03-06T08:41:24;13.15;;;8.77;;
9140;SDS011;46330;50.822;7.126;2024-03-06T08:43:52;13.48;;;8.55;;
9140;SDS011;46330;50.822;7.126;2024-03-06T08:46:19;15.70;;;8.43;;
9140;SDS011;46330;50.822;7.126;2024-03-06T08:48:47;10.77;;;6.97;;
9140;SDS011;46330;50.822;7.126;2024-03-06T08:51:17;9.68;;;6.28;;
9140;SDS011;46330;50.822;7.126;2024-03-06T08:53:45;9.32;;;6.30;;
9140;SDS011;46330;50.822;7.126;2024-03-06T08:56:14;15.70;;;6.05;;
9140;SDS011;46330;50.822;7.126;2024-03-06T08:58:42;7.75;;;5.60;;
9140;SDS011;46330;50.822;7.126;2024-03-06T09:01:10;7.60;;;5.20;;
9140;SDS011;46330;50.822;7.126;2024-03-06T09:03:39;9.13;;;5.53;;
9140;SDS011;46330;50.822;7.126;2024-03-06T09:06:07;9.25;;;5.60;;
9140;SDS011;46330;50.822;7.126;2024-03-06T09:08:36;7.75;;;5.53;;
9140;SDS011;46330;50.822;7.126;2024-03-06T09:11:04;7.97;;;5.35;;
9140;SDS011;46330;50.822;7.126;2024-03-06T09:13:32;6.95;;;4.93;;
9140;SDS011;46330;50.822;7.126;2024-03-06T09:16:00;6.07;;;4.40;;
9140;SDS011;46330;50.822;7.126;2024-03-06T09:18:28;8.95;;;5.45;;
9140;SDS011;46330;50.822;7.126;2024-03-06T09:20:56;9.05;;;5.28;;
9140;SDS011;46330;50.822;7.126;2024-03-06T09:23:24;9.10;;;5.25;;
9140;SDS011;46330;50.822;7.126;2024-03-06T09:25:55;8.52;;;5.40;;
9140;SDS011;46330;50.822;7.126;2024-03-06T09:28:23;7.50;;;5.18;;
9140;SDS011;46330;50.822;7.126;2024-03-06T09:30:51;9.55;;;4.53;;
9140;SDS011;46330;50.822;7.126;2024-03-06T09:33:18;8.52;;;4.60;;
9140;SDS011;46330;50.822;7.126;2024-03-06T09:35:46;6.45;;;4.40;;
9140;SDS011;46330;50.822;7.126;2024-03-06T09:38:14;7.57;;;4.13;;
9140;SDS011;46330;50.822;7.126;2024-03-06T09:40:45;6.72;;;4.13;;
9140;SDS011;46330;50.822;7.126;2024-03-06T09:43:16;6.88;;;4.40;;
9140;SDS011;46330;50.822;7.126;2024-03-06T09:45:44;7.82;;;4.43;;
9140;SDS011;46330;50.822;7.126;2024-03-06T09:48:16;6.55;;;4.55;;
9140;SDS011;46330;50.822;7.126;2024-03-06T09:50:46;5.93;;;4.03;;
9140;SDS011;46330;50.822;7.126;2024-03-06T09:53:16;6.32;;;4.30;;
9140;SDS011;46330;50.822;7.126;2024-03-06T09:55:48;7.85;;;4.18;;
9140;SDS011;46330;50.822;7.126;2024-03-06T09:58:19;6.00;;;3.97;;
9140;SDS011;46330;50.822;7.126;2024-03-06T10:00:47;5.72;;;3.80;;
9140;SDS011;46330;50.822;7.126;2024-03-06T10:03:17;5.75;;;3.85;;
9140;SDS011;46330;50.822;7.126;2024-03-06T10:05:46;6.50;;;4.03;;
9140;SDS011;46330;50.822;7.126;2024-03-06T10:08:14;6.35;;;4.00;;
9140;SDS011;46330;50.822;7.126;2024-03-06T10:10:43;7.57;;;4.00;;
9140;SDS011;46330;50.822;7.126;2024-03-06T10:13:12;8.85;;;4.25;;
9140;SDS011;46330;50.822;7.126;2024-03-06T10:15:42;5.22;;;3.80;;
9140;SDS011;46330;50.822;7.126;2024-03-06T10:18:10;6.43;;;3.78;;
9140;SDS011;46330;50.822;7.126;2024-03-06T10:20:40;6.22;;;3.58;;
9140;SDS011;46330;50.822;7.126;2024-03-06T10:23:11;7.32;;;3.40;;
9140;SDS011;46330;50.822;7.126;2024-03-06T10:25:39;5.18;;;3.53;;
9140;SDS011;46330;50.822;7.126;2024-03-06T10:28:11;6.03;;;3.78;;
9140;SDS011;46330;50.822;7.126;2024-03-06T10:30:39;5.72;;;3.70;;
9140;SDS011;46330;50.822;7.126;2024-03-06T10:33:10;7.05;;;4.60;;
9140;SDS011;46330;50.822;7.126;2024-03-06T10:35:39;6.55;;;3.60;;
9140;SDS011;46330;50.822;7.126;2024-03-06T10:38:08;5.03;;;3.70;;
9140;SDS011;46330;50.822;7.126;2024-03-06T10:40:37;6.53;;;3.80;;
9140;SDS011;46330;50.822;7.126;2024-03-06T10:43:07;6.35;;;3.65;;
9140;SDS011;46330;50.822;7.126;2024-03-06T10:45:39;6.53;;;3.53;;
9140;SDS011;46330;50.822;7.126;2024-03-06T10:48:12;5.97;;;3.70;;
9140;SDS011;46330;50.822;7.126;2024-03-06T10:50:42;5.38;;;3.67;;
9140;SDS011;46330;50.822;7.126;2024-03-06T10:53:11;6.22;;;3.65;;
9140;SDS011;46330;50.822;7.126;2024-03-06T10:55:47;4.97;;;3.60;;
9140;SDS011;46330;50.822;7.126;2024-03-06T10:58:17;8.23;;;3.90;;
9140;SDS011;46330;50.822;7.126;2024-03-06T11:00:48;5.50;;;3.92;;
9140;SDS011;46330;50.822;7.126;2024-03-06T11:03:18;6.32;;;3.55;;
9140;SDS011;46330;50.822;7.126;2024-03-06T11:05:47;4.80;;;3.60;;
9140;SDS011;46330;50.822;7.126;2024-03-06T11:08:18;4.82;;;3.40;;
9140;SDS011;46330;50.822;7.126;2024-03-06T11:10:47;6.40;;;4.15;;
9140;SDS011;46330;50.822;7.126;2024-03-06T11:13:21;6.93;;;4.38;;
9140;SDS011;46330;50.822;7.126;2024-03-06T11:15:53;7.20;;;3.80;;
9140;SDS011;46330;50.822;7.126;2024-03-06T11:21:29;6.55;;;4.68;;
9140;SDS011;46330;50.822;7.126;2024-03-06T11:24:14;7.82;;;5.60;;
9140;SDS011;46330;50.822;7.126;2024-03-06T11:26:46;8.88;;;5.15;;
9140;SDS011;46330;50.822;7.126;2024-03-06T11:29:15;8.35;;;5.18;;
9140;SDS011;46330;50.822;7.126;2024-03-06T11:34:42;8.70;;;5.68;;
9140;SDS011;46330;50.822;7.126;2024-03-06T11:37:10;6.90;;;4.97;;
9140;SDS011;46330;50.822;7.126;2024-03-06T11:39:38;8.13;;;5.72;;
9140;SDS011;46330;50.822;7.126;2024-03-06T11:42:08;8.32;;;5.88;;
9140;SDS011;46330;50.822;7.126;2024-03-06T11:44:36;9.48;;;6.25;;
9140;SDS011;46330;50.822;7.126;2024-03-06T11:47:05;10.45;;;7.35;;
9140;SDS011;46330;50.822;7.126;2024-03-06T11:49:36;10.55;;;7.25;;
9140;SDS011;46330;50.822;7.126;2024-03-06T11:52:06;12.25;;;7.30;;
9140;SDS011;46330;50.822;7.126;2024-03-06T11:54:36;11.65;;;7.80;;
9140;SDS011;46330;50.822;7.126;2024-03-06T11:57:05;14.30;;;7.97;;
9140;SDS011;46330;50.822;7.126;2024-03-06T11:59:33;12.10;;;7.95;;
9140;SDS011;46330;50.822;7.126;2024-03-06T12:02:04;12.43;;;7.68;;
9140;SDS011;46330;50.822;7.126;2024-03-06T12:04:34;11.25;;;8.10;;
9140;SDS011;46330;50.822;7.126;2024-03-06T12:07:06;12.60;;;8.40;;
9140;SDS011;46330;50.822;7.126;2024-03-06T12:09:37;10.95;;;7.70;;
9140;SDS011;46330;50.822;7.126;2024-03-06T12:12:09;13.73;;;7.78;;
9140;SDS011;46330;50.822;7.126;2024-03-06T12:14:39;10.70;;;7.30;;
9140;SDS011;46330;50.822;7.126;2024-03-06T12:17:11;12.93;;;6.82;;
9140;SDS011;46330;50.822;7.126;2024-03-06T12:19:41;9.35;;;6.03;;
9140;SDS011;46330;50.822;7.126;2024-03-06T12:22:11;8.18;;;5.80;;
9140;SDS011;46330;50.822;7.126;2024-03-06T12:24:41;8.82;;;5.95;;
9140;SDS011;46330;50.822;7.126;2024-03-06T12:27:09;10.52;;;6.65;;
9140;SDS011;46330;50.822;7.126;2024-03-06T12:29:39;8.80;;;6.10;;
9140;SDS011;46330;50.822;7.126;2024-03-06T12:32:15;8.48;;;5.82;;
9140;SDS011;46330;50.822;7.126;2024-03-06T12:34:55;10.40;;;5.35;;
9140;SDS011;46330;50.822;7.126;2024-03-06T12:37:29;8.95;;;5.30;;
9140;SDS011;46330;50.822;7.126;2024-03-06T12:39:58;6.78;;;4.88;;
9140;SDS011;46330;50.822;7.126;2024-03-06T12:42:26;8.60;;;4.68;;
9140;SDS011;46330;50.822;7.126;2024-03-06T12:44:55;6.18;;;4.28;;
9140;SDS011;46330;50.822;7.126;2024-03-06T12:47:23;7.07;;;4.63;;
9140;SDS011;46330;50.822;7.126;2024-03-06T12:49:51;8.77;;;4.30;;
9140;SDS011;46330;50.822;7.126;2024-03-06T12:52:20;6.13;;;4.20;;
9140;SDS011;46330;50.822;7.126;2024-03-06T12:54:49;6.85;;;4.43;;
9140;SDS011;46330;50.822;7.126;2024-03-06T12:57:17;6.38;;;4.25;;
9140;SDS011;46330;50.822;7.126;2024-03-06T12:59:45;8.27;;;4.38;;
9140;SDS011;46330;50.822;7.126;2024-03-06T13:02:13;6.45;;;4.65;;
9140;SDS011;46330;50.822;7.126;2024-03-06T13:04:41;6.85;;;4.53;;
9140;SDS011;46330;50.822;7.126;2024-03-06T13:07:09;7.25;;;4.10;;
9140;SDS011;46330;50.822;7.126;2024-03-06T13:09:37;6.32;;;4.38;;
9140;SDS011;46330;50.822;7.126;2024-03-06T13:12:07;7.95;;;4.65;;
9140;SDS011;46330;50.822;7.126;2024-03-06T13:14:35;6.95;;;4.97;;
9140;SDS011;46330;50.822;7.126;2024-03-06T13:17:03;9.45;;;5.50;;
9140;SDS011;46330;50.822;7.126;2024-03-06T13:19:32;10.00;;;6.10;;
9140;SDS011;46330;50.822;7.126;2024-03-06T13:22:01;9.50;;;5.47;;
9140;SDS011;46330;50.822;7.126;2024-03-06T13:24:31;9.68;;;5.22;;
9140;SDS011;46330;50.822;7.126;2024-03-06T13:27:00;8.38;;;5.00;;
9140;SDS011;46330;50.822;7.126;2024-03-06T13:29:29;7.55;;;4.85;;
9140;SDS011;46330;50.822;7.126;2024-03-06T13:31:57;8.85;;;5.10;;
9140;SDS011;46330;50.822;7.126;2024-03-06T13:34:26;8.52;;;4.68;;
9140;SDS011;46330;50.822;7.126;2024-03-06T13:36:54;7.70;;;4.85;;
9140;SDS011;46330;50.822;7.126;2024-03-06T13:39:22;7.60;;;4.90;;
9140;SDS011;46330;50.822;7.126;2024-03-06T13:41:50;8.93;;;5.35;;
9140;SDS011;46330;50.822;7.126;2024-03-06T13:44:18;8.52;;;5.57;;
9140;SDS011;46330;50.822;7.126;2024-03-06T13:46:49;7.22;;;5.32;;
9140;SDS011;46330;50.822;7.126;2024-03-06T13:49:33;8.25;;;5.10;;
9140;SDS011;46330;50.822;7.126;2024-03-06T13:52:02;6.25;;;4.68;;
9140;SDS011;46330;50.822;7.126;2024-03-06T13:54:31;7.70;;;4.70;;
9140;SDS011;46330;50.822;7.126;2024-03-06T13:56:59;7.97;;;4.80;;
9140;SDS011;46330;50.822;7.126;2024-03-06T13:59:29;7.20;;;4.80;;
9140;SDS011;46330;50.822;7.126;2024-03-06T14:02:00;6.70;;;4.57;;
9140;SDS011;46330;50.822;7.126;2024-03-06T14:04:29;7.63;;;4.10;;
9140;SDS011;46330;50.822;7.126;2024-03-06T14:06:58;7.15;;;4.45;;
9140;SDS011;46330;50.822;7.126;2024-03-06T14:09:26;11.88;;;6.70;;
9140;SDS011;46330;50.822;7.126;2024-03-06T14:11:55;6.63;;;4.45;;
9140;SDS011;46330;50.822;7.126;2024-03-06T14:14:23;8.57;;;4.70;;
9140;SDS011;46330;50.822;7.126;2024-03-06T14:16:51;6.25;;;4.10;;
9140;SDS011;46330;50.822;7.126;2024-03-06T14:19:20;6.03;;;3.72;;
9140;SDS011;46330;50.822;7.126;2024-03-06T14:21:48;5.90;;;4.13;;
9140;SDS011;46330;50.822;7.126;2024-03-06T14:24:16;6.90;;;4.32;;
9140;SDS011;46330;50.822;7.126;2024-03-06T14:26:44;6.63;;;4.13;;
9140;SDS011;46330;50.822;7.126;2024-03-06T14:29:13;7.00;;;4.00;;
9140;SDS011;46330;50.822;7.126;2024-03-06T14:31:42;6.53;;;4.28;;
9140;SDS011;46330;50.822;7.126;2024-03-06T14:34:09;4.97;;;3.60;;
9140;SDS011;46330;50.822;7.126;2024-03-06T14:36:39;5.35;;;3.70;;
9140;SDS011;46330;50.822;7.126;2024-03-06T14:39:08;5.30;;;3.58;;
9140;SDS011;46330;50.822;7.126;2024-03-06T14:41:37;6.53;;;3.67;;
9140;SDS011;46330;50.822;7.126;2024-03-06T14:44:05;5.32;;;3.65;;
9140;SDS011;46330;50.822;7.126;2024-03-06T14:46:33;5.72;;;3.80;;
9140;SDS011;46330;50.822;7.126;2024-03-06T14:49:01;6.65;;;3.85;;
9140;SDS011;46330;50.822;7.126;2024-03-06T14:51:30;5.45;;;3.40;;
9140;SDS011;46330;50.822;7.126;2024-03-06T14:53:59;6.05;;;3.92;;
9140;SDS011;46330;50.822;7.126;2024-03-06T14:56:27;4.70;;;3.30;;
9140;SDS011;46330;50.822;7.126;2024-03-06T14:58:57;8.00;;;4.13;;
9140;SDS011;46330;50.822;7.126;2024-03-06T15:01:25;4.82;;;2.97;;
9140;SDS011;46330;50.822;7.126;2024-03-06T15:03:53;5.25;;;3.40;;
9140;SDS011;46330;50.822;7.126;2024-03-06T15:06:22;4.47;;;2.88;;
9140;SDS011;46330;50.822;7.126;2024-03-06T15:08:50;3.80;;;2.50;;
9140;SDS011;46330;50.822;7.126;2024-03-06T15:11:20;3.35;;;2.30;;
9140;SDS011;46330;50.822;7.126;2024-03-06T15:13:49;4.13;;;2.35;;
9140;SDS011;46330;50.822;7.126;2024-03-06T15:16:17;4.32;;;2.53;;
9140;SDS011;46330;50.822;7.126;2024-03-06T15:18:45;3.50;;;2.58;;
9140;SDS011;46330;50.822;7.126;2024-03-06T15:21:15;5.10;;;2.88;;